Crystal Symphony — C6MY5 — position and weather

sailwx.info

Track history (hours):
 
Tides and Currents Weather Stations Pressure Air Temp Water Temp Dewpoint Dewpoint Depression Visibility Wind Speed Wind Dir Waves Ship Positions

Crystal Symphony

Operator: Crystal Cruises

Last reported at 2014-Aug-27 10:33 UTC. Time now 2014-Aug-27 11:12 UTC.
Position N 53°04' W 009°26'.

Length 238 m; draft 8 m.

Type: Ship. MMSI: 309168000.

Date/timePositionNaut miles runAvg speedWind from/ knotsBaromVisibWave heightAir tempDewpointWater temp
2014-Aug-27 10:33N 53°04' W 009°26'11 2.8
2014-Aug-27 06:32N 53°12' W 009°13'1717.0
2014-Aug-27 05:33N 53°12' W 009°41'1616.0
2014-Aug-27 04:33N 53°15' W 010°07'1615.7
2014-Aug-27 03:33N 53°27' W 010°24'1717.0
2014-Aug-27 02:33N 53°44' W 010°30'1717.4
2014-Aug-27 01:33N 54°01' W 010°30'1817.6
2014-Aug-27 00:33N 54°17' W 010°19'1817.6
2014-Aug-26 23:33N 54°29' W 009°57'10916.9
2014-Aug-26 17:05N 55°24' W 007°12'1118.5
2014-Aug-26 16:31N 55°18' W 006°57'8 2.2
2014-Aug-26 13:03N 55°11' W 007°02'0 0.0
2014-Aug-26 11:27N 55°11' W 007°02'5719723.2
2014-Aug-26 03:33N 31°60' E 120°37'56775754.1
2014-Aug-26 02:33N 55°25' W 006°12'9 9.0
2014-Aug-26 01:33N 55°21' W 005°59'1110.7
2014-Aug-26 00:33N 55°11' W 005°49'10 9.9
2014-Aug-25 23:33N 55°03' W 005°41'9 8.9
2014-Aug-25 22:33N 54°54' W 005°36'9 9.4
2014-Aug-25 21:34N 54°45' W 005°38'12 0.8
2014-Aug-25 06:30N 54°37' W 005°54'7 7.7
2014-Aug-25 05:33N 54°42' W 005°44'8 8.2
2014-Aug-25 04:33N 54°43' W 005°30'8 8.5
2014-Aug-25 03:33N 54°37' W 005°20'9 9.5
2014-Aug-25 02:33N 54°28' W 005°17'10 9.8
2014-Aug-25 01:33N 54°18' W 005°19'10 9.6
2014-Aug-25 00:30N 54°08' W 005°25'61 1.4
2014-Aug-23 03:33N 55°09' W 005°15'2520.1
2014-Aug-23 02:20N 55°32' W 005°01'1519.1
2014-Aug-23 01:33N 55°47' W 004°58'1312.9
2014-Aug-23 00:34N 55°58' W 004°46'1 0.8
2014-Aug-22 23:34N 55°57' W 004°46'0 0.0
2014-Aug-22 22:34N 55°57' W 004°46'0 0.0
2014-Aug-22 21:34N 55°57' W 004°46'0 0.0
2014-Aug-22 20:34N 55°57' W 004°46'0 0.0
2014-Aug-22 19:34N 55°57' W 004°46'0 0.0
2014-Aug-22 18:34N 55°57' W 004°46'0 0.0
2014-Aug-22 17:34N 55°57' W 004°46'0 0.0
2014-Aug-22 16:34N 55°57' W 004°46'0 0.0
2014-Aug-22 15:34N 55°57' W 004°46'0 0.0
2014-Aug-22 14:34N 55°57' W 004°46'0 0.0
2014-Aug-22 13:34N 55°57' W 004°46'0 0.0
2014-Aug-22 12:34N 55°57' W 004°46'0 0.0
2014-Aug-22 11:34N 55°57' W 004°46'0 0.0
2014-Aug-22 10:34N 55°57' W 004°46'0 0.0
2014-Aug-22 09:34N 55°57' W 004°46'0 0.0
2014-Aug-22 08:33N 55°57' W 004°46'0 0.2
2014-Aug-22 07:34N 55°58' W 004°46'8 7.8
2014-Aug-22 06:34N 55°52' W 004°56'1612.6
2014-Aug-22 05:17N 55°36' W 004°56'2713.7
2014-Aug-22 03:19N 55°11' W 005°13'1013.7
2014-Aug-22 02:34N 55°01' W 005°18'1413.8
2014-Aug-22 01:34N 54°47' W 005°17'1414.3
2014-Aug-22 00:33N 54°33' W 005°11'6516.1
2014-Aug-21 20:31N 53°42' W 004°04'1616.6
2014-Aug-21 19:33N 53°34' W 003°40'1813.3
2014-Aug-21 18:14N 53°32' W 003°11'10 2.3
2014-Aug-21 14:04N 53°25' W 003°00'0 0.0
2014-Aug-21 10:18N 53°25' W 003°00'0 0.0
2014-Aug-21 09:31N 53°25' W 003°00'0 0.0
2014-Aug-21 08:30N 53°25' W 003°00'0 0.0
2014-Aug-21 07:27N 53°25' W 003°00'0 0.3
2014-Aug-21 06:08N 53°25' W 003°01'710.4
2014-Aug-21 05:30N 53°31' W 003°06'1010.3
2014-Aug-21 04:32N 53°31' W 003°23'1010.4
2014-Aug-21 03:33N 53°31' W 003°40'1010.5
2014-Aug-21 02:33N 53°37' W 003°55'1111.1
2014-Aug-21 01:33N 53°45' W 004°08'84 3.3
2014-Aug-20 00:15N 52°37' W 005°31'810.8
2014-Aug-19 23:30N 52°30' W 005°38'1010.2
2014-Aug-19 22:33N 52°22' W 005°46'1010.3
2014-Aug-19 21:33N 52°13' W 005°55'10 9.7
2014-Aug-19 20:33N 52°05' W 006°04'1010.3
2014-Aug-19 19:33N 52°02' W 006°20'1111.3
2014-Aug-19 18:34N 52°01' W 006°38'1111.4
2014-Aug-19 17:33N 52°05' W 006°56'4 4.0
2014-Aug-19 16:33N 52°09' W 006°58'0 0.0
2014-Aug-19 15:33N 52°09' W 006°58'0 0.0
2014-Aug-19 14:33N 52°09' W 006°58'0 0.1
2014-Aug-19 13:33N 52°09' W 006°58'0 0.0
2014-Aug-19 12:33N 52°09' W 006°58'0 0.0
2014-Aug-19 11:33N 52°09' W 006°58'0 0.1
2014-Aug-19 10:33N 52°09' W 006°58'0 0.0
2014-Aug-19 09:33N 52°09' W 006°58'0 0.0
2014-Aug-19 08:33N 52°09' W 006°58'0 0.0
2014-Aug-19 07:33N 52°09' W 006°58'0 0.1
2014-Aug-19 06:33N 52°09' W 006°58'6 6.2
2014-Aug-19 05:33N 52°03' W 006°56'1414.4
2014-Aug-19 04:33N 51°49' W 006°49'294 8.6
2014-Aug-17 18:33N 50°44' E 000°49'2215.3
2014-Aug-17 17:06N 50°57' E 001°17'813.9
2014-Aug-17 16:33N 51°04' E 001°22'  
Track history (hours):
 
Tides and Currents Weather Stations Pressure Air Temp Water Temp Dewpoint Dewpoint Depression Visibility Wind Speed Wind Dir Waves Ship Positions

Crystal Symphony

Operator: Crystal Cruises

Last reported at 2014-Aug-27 10:33 UTC. Time now 2014-Aug-27 11:12 UTC.
Position N 53°04' W 009°26'.

Length 238 m; draft 8 m.

Type: Ship. MMSI: 309168000.

Date/timePositionNaut miles runAvg speedWind from/ knotsBaromVisibWave heightAir tempDewpointWater temp
2014-Aug-27 10:33N 53°04' W 009°26'11 2.8
2014-Aug-27 06:32N 53°12' W 009°13'1717.0
2014-Aug-27 05:33N 53°12' W 009°41'1616.0
2014-Aug-27 04:33N 53°15' W 010°07'1615.7
2014-Aug-27 03:33N 53°27' W 010°24'1717.0
2014-Aug-27 02:33N 53°44' W 010°30'1717.4
2014-Aug-27 01:33N 54°01' W 010°30'1817.6
2014-Aug-27 00:33N 54°17' W 010°19'1817.6
2014-Aug-26 23:33N 54°29' W 009°57'10916.9
2014-Aug-26 17:05N 55°24' W 007°12'1118.5
2014-Aug-26 16:31N 55°18' W 006°57'8 2.2
2014-Aug-26 13:03N 55°11' W 007°02'0 0.0
2014-Aug-26 11:27N 55°11' W 007°02'5719723.2
2014-Aug-26 03:33N 31°60' E 120°37'56775754.1
2014-Aug-26 02:33N 55°25' W 006°12'9 9.0
2014-Aug-26 01:33N 55°21' W 005°59'1110.7
2014-Aug-26 00:33N 55°11' W 005°49'10 9.9
2014-Aug-25 23:33N 55°03' W 005°41'9 8.9
2014-Aug-25 22:33N 54°54' W 005°36'9 9.4
2014-Aug-25 21:34N 54°45' W 005°38'12 0.8
2014-Aug-25 06:30N 54°37' W 005°54'7 7.7
2014-Aug-25 05:33N 54°42' W 005°44'8 8.2
2014-Aug-25 04:33N 54°43' W 005°30'8 8.5
2014-Aug-25 03:33N 54°37' W 005°20'9 9.5
2014-Aug-25 02:33N 54°28' W 005°17'10 9.8
2014-Aug-25 01:33N 54°18' W 005°19'10 9.6
2014-Aug-25 00:30N 54°08' W 005°25'61 1.4
2014-Aug-23 03:33N 55°09' W 005°15'2520.1
2014-Aug-23 02:20N 55°32' W 005°01'1519.1
2014-Aug-23 01:33N 55°47' W 004°58'1312.9
2014-Aug-23 00:34N 55°58' W 004°46'1 0.8
2014-Aug-22 23:34N 55°57' W 004°46'0 0.0
2014-Aug-22 22:34N 55°57' W 004°46'0 0.0
2014-Aug-22 21:34N 55°57' W 004°46'0 0.0
2014-Aug-22 20:34N 55°57' W 004°46'0 0.0
2014-Aug-22 19:34N 55°57' W 004°46'0 0.0
2014-Aug-22 18:34N 55°57' W 004°46'0 0.0
2014-Aug-22 17:34N 55°57' W 004°46'0 0.0
2014-Aug-22 16:34N 55°57' W 004°46'0 0.0
2014-Aug-22 15:34N 55°57' W 004°46'0 0.0
2014-Aug-22 14:34N 55°57' W 004°46'0 0.0
2014-Aug-22 13:34N 55°57' W 004°46'0 0.0
2014-Aug-22 12:34N 55°57' W 004°46'0 0.0
2014-Aug-22 11:34N 55°57' W 004°46'0 0.0
2014-Aug-22 10:34N 55°57' W 004°46'0 0.0
2014-Aug-22 09:34N 55°57' W 004°46'0 0.0
2014-Aug-22 08:33N 55°57' W 004°46'0 0.2
2014-Aug-22 07:34N 55°58' W 004°46'8 7.8
2014-Aug-22 06:34N 55°52' W 004°56'1612.6
2014-Aug-22 05:17N 55°36' W 004°56'2713.7
2014-Aug-22 03:19N 55°11' W 005°13'1013.7
2014-Aug-22 02:34N 55°01' W 005°18'1413.8
2014-Aug-22 01:34N 54°47' W 005°17'1414.3
2014-Aug-22 00:33N 54°33' W 005°11'6516.1
2014-Aug-21 20:31N 53°42' W 004°04'1616.6
2014-Aug-21 19:33N 53°34' W 003°40'1813.3
2014-Aug-21 18:14N 53°32' W 003°11'10 2.3
2014-Aug-21 14:04N 53°25' W 003°00'0 0.0
2014-Aug-21 10:18N 53°25' W 003°00'0 0.0
2014-Aug-21 09:31N 53°25' W 003°00'0 0.0
2014-Aug-21 08:30N 53°25' W 003°00'0 0.0
2014-Aug-21 07:27N 53°25' W 003°00'0 0.3
2014-Aug-21 06:08N 53°25' W 003°01'710.4
2014-Aug-21 05:30N 53°31' W 003°06'1010.3
2014-Aug-21 04:32N 53°31' W 003°23'1010.4
2014-Aug-21 03:33N 53°31' W 003°40'1010.5
2014-Aug-21 02:33N 53°37' W 003°55'1111.1
2014-Aug-21 01:33N 53°45' W 004°08'84 3.3
2014-Aug-20 00:15N 52°37' W 005°31'810.8
2014-Aug-19 23:30N 52°30' W 005°38'1010.2
2014-Aug-19 22:33N 52°22' W 005°46'1010.3
2014-Aug-19 21:33N 52°13' W 005°55'10 9.7
2014-Aug-19 20:33N 52°05' W 006°04'1010.3
2014-Aug-19 19:33N 52°02' W 006°20'1111.3
2014-Aug-19 18:34N 52°01' W 006°38'1111.4
2014-Aug-19 17:33N 52°05' W 006°56'4 4.0
2014-Aug-19 16:33N 52°09' W 006°58'0 0.0
2014-Aug-19 15:33N 52°09' W 006°58'0 0.0
2014-Aug-19 14:33N 52°09' W 006°58'0 0.1
2014-Aug-19 13:33N 52°09' W 006°58'0 0.0
2014-Aug-19 12:33N 52°09' W 006°58'0 0.0
2014-Aug-19 11:33N 52°09' W 006°58'0 0.1
2014-Aug-19 10:33N 52°09' W 006°58'0 0.0
2014-Aug-19 09:33N 52°09' W 006°58'0 0.0
2014-Aug-19 08:33N 52°09' W 006°58'0 0.0
2014-Aug-19 07:33N 52°09' W 006°58'0 0.1
2014-Aug-19 06:33N 52°09' W 006°58'6 6.2
2014-Aug-19 05:33N 52°03' W 006°56'1414.4
2014-Aug-19 04:33N 51°49' W 006°49'294 8.6
2014-Aug-17 18:33N 50°44' E 000°49'2215.3
2014-Aug-17 17:06N 50°57' E 001°17'813.9
2014-Aug-17 16:33N 51°04' E 001°22'  

Dump ship's entire track history